TimePST,TemperatureF,Dew PointF,Humidity,Sea Level PressureIn,VisibilityMPH,Wind Direction,Wind SpeedMPH,Gust SpeedMPH,PrecipitationIn,Events,Conditions,WindDirDegrees,DateUTC
12:53 AM,44.1,43.0,96,30.11,10.0,Calm,Calm,-,N/A,,Clear,0,2012-12-03 08:53:00
1:53 AM,44.1,43.0,96,30.12,10.0,Calm,Calm,-,N/A,,Clear,0,2012-12-03 09:53:00
2:53 AM,42.1,41.0,96,30.13,9.0,Calm,Calm,-,N/A,,Clear,0,2012-12-03 10:53:00
4:53 AM,42.1,41.0,96,30.15,10.0,NE,4.6,-,N/A,,Clear,50,2012-12-03 12:53:00
5:53 AM,42.1,39.9,92,30.15,10.0,Calm,Calm,-,N/A,,Clear,0,2012-12-03 13:53:00
7:23 AM,41.0,39.2,93,30.17,1.2,Calm,Calm,-,N/A,,Partly Cloudy,0,2012-12-03 15:23:00
7:27 AM,39.2,39.2,100,30.17,0.1,Calm,Calm,-,N/A,Fog,Fog,0,2012-12-03 15:27:00
7:38 AM,39.2,39.2,100,30.17,0.2,WNW,3.5,-,N/A,Fog,Fog,290,2012-12-03 15:38:00
7:53 AM,41.0,41.0,100,30.19,0.2,WNW,3.5,-,N/A,Fog,Fog,290,2012-12-03 15:53:00
8:10 AM,42.8,41.0,93,30.19,10.0,West,3.5,-,N/A,Fog,Patches of Fog,270,2012-12-03 16:10:00
8:46 AM,42.8,42.8,100,30.20,2.5,Calm,Calm,-,N/A,,Mostly Cloudy,0,2012-12-03 16:46:00
8:51 AM,42.8,42.8,100,30.20,0.8,South,3.5,-,N/A,,Mostly Cloudy,190,2012-12-03 16:51:00
8:53 AM,43.0,43.0,100,30.21,1.5,South,3.5,-,N/A,,Mostly Cloudy,180,2012-12-03 16:53:00
9:00 AM,42.8,42.8,100,30.20,1.5,Calm,Calm,-,N/A,,Mostly Cloudy,0,2012-12-03 17:00:00
9:21 AM,44.6,42.8,93,30.21,3.0,Calm,Calm,-,N/A,,Overcast,0,2012-12-03 17:21:00
9:23 AM,44.6,42.8,93,30.21,3.0,Calm,Calm,-,N/A,Fog,Patches of Fog,0,2012-12-03 17:23:00
9:53 AM,45.0,44.1,97,30.22,10.0,Calm,Calm,-,N/A,Fog,Patches of Fog,0,2012-12-03 17:53:00
10:53 AM,51.1,44.1,77,30.20,10.0,Calm,Calm,-,N/A,,Clear,0,2012-12-03 18:53:00
11:53 AM,55.0,44.1,67,30.19,10.0,Calm,Calm,-,N/A,,Clear,0,2012-12-03 19:53:00
12:53 PM,59.0,46.0,62,30.16,10.0,Calm,Calm,-,N/A,,Clear,0,2012-12-03 20:53:00
1:23 PM,60.8,44.6,55,30.15,10.0,ENE,3.5,-,N/A,,Clear,60,2012-12-03 21:23:00
1:53 PM,60.1,45.0,57,30.14,10.0,NE,3.5,-,N/A,,Clear,40,2012-12-03 21:53:00
2:53 PM,62.1,44.1,52,30.15,10.0,Calm,Calm,-,N/A,,Clear,0,2012-12-03 22:53:00
3:53 PM,60.1,43.0,53,30.16,10.0,Calm,Calm,-,N/A,,Clear,0,2012-12-03 23:53:00
4:53 PM,55.9,46.9,72,30.16,10.0,ENE,8.1,-,N/A,,Clear,60,2012-12-04 00:53:00
5:53 PM,54.0,46.9,77,30.17,10.0,ENE,5.8,-,N/A,,Clear,60,2012-12-04 01:53:00
6:53 PM,54.0,48.0,80,30.17,10.0,ENE,6.9,-,N/A,,Clear,60,2012-12-04 02:53:00
7:53 PM,54.0,48.0,80,30.17,10.0,ENE,4.6,-,N/A,,Clear,70,2012-12-04 03:53:00
8:53 PM,54.0,46.9,77,30.13,10.0,ENE,6.9,-,N/A,,Clear,70,2012-12-04 04:53:00
10:53 PM,51.1,46.9,86,30.17,10.0,SSE,3.5,-,N/A,,Clear,160,2012-12-04 06:53:00
11:53 PM,51.1,46.9,86,30.16,10.0,Calm,Calm,-,N/A,,Clear,0,2012-12-04 07:53:00